createdAt,value
2022-11-14T00:02:03.876Z,5.30
2022-11-14T00:05:24.484Z,5.40
2022-11-14T00:08:45.612Z,5.82
2022-11-14T00:12:06.343Z,6.30
2022-11-14T00:15:27.212Z,6.18
2022-11-14T00:18:48.443Z,4.95
2022-11-14T00:22:09.019Z,6.45
2022-11-14T00:25:30.045Z,7.18
2022-11-14T00:28:50.943Z,5.93
2022-11-14T00:32:12.342Z,6.85
2022-11-14T00:35:33.983Z,6.78
2022-11-14T00:38:54.592Z,6.07
2022-11-14T00:42:15.149Z,6.63
2022-11-14T00:45:35.867Z,8.18
2022-11-14T00:48:56.730Z,7.85
2022-11-14T00:52:17.898Z,7.18
2022-11-14T00:55:38.598Z,8.77
2022-11-14T00:58:59.463Z,7.80
2022-11-14T01:02:20.353Z,9.15
2022-11-14T01:05:41.424Z,8.55
2022-11-14T01:09:02.896Z,8.35
2022-11-14T01:12:23.752Z,8.20
2022-11-14T01:15:44.496Z,8.27
2022-11-14T01:19:05.124Z,7.80
2022-11-14T01:22:25.697Z,9.25
2022-11-14T01:25:46.429Z,9.40
2022-11-14T01:29:07.160Z,10.02
2022-11-14T01:32:28.163Z,9.30
2022-11-14T01:35:49.397Z,8.65
2022-11-14T01:39:10.192Z,8.70
2022-11-14T01:42:31.102Z,8.85
2022-11-14T01:45:52.200Z,8.95
2022-11-14T01:49:13.903Z,8.52
2022-11-14T01:52:35.270Z,9.50
2022-11-14T01:55:55.976Z,9.60
2022-11-14T01:59:16.894Z,10.38
2022-11-14T02:02:37.921Z,10.55
2022-11-14T02:05:58.639Z,9.52
2022-11-14T02:09:19.500Z,10.45
2022-11-14T02:12:40.387Z,11.27
2022-11-14T02:16:01.432Z,10.32
2022-11-14T02:19:22.456Z,12.25
2022-11-14T02:22:43.616Z,10.38
2022-11-14T02:26:04.381Z,12.25
2022-11-14T02:29:25.695Z,11.30
2022-11-14T02:36:28.183Z,10.38
2022-11-14T02:39:49.265Z,10.93
2022-11-14T02:43:11.267Z,9.65
2022-11-14T02:46:32.647Z,12.15
2022-11-14T02:49:53.291Z,10.15
2022-11-14T02:53:13.855Z,10.93
2022-11-14T02:56:35.020Z,10.77
2022-11-14T02:59:56.402Z,11.90
2022-11-14T03:03:16.963Z,11.82
2022-11-14T03:06:37.939Z,11.73
2022-11-14T03:09:59.427Z,11.73
2022-11-14T03:13:20.336Z,11.68
2022-11-14T03:16:41.168Z,11.10
2022-11-14T03:20:01.674Z,12.23
2022-11-14T03:23:22.655Z,11.30
2022-11-14T03:26:43.889Z,12.50
2022-11-14T03:30:04.989Z,13.52
2022-11-14T03:33:26.191Z,12.82
2022-11-14T03:36:47.161Z,11.65
2022-11-14T03:40:07.639Z,11.25
2022-11-14T03:43:28.320Z,11.45
2022-11-14T03:46:49.355Z,12.10
2022-11-14T03:50:10.434Z,11.68
2022-11-14T03:53:31.088Z,11.52
2022-11-14T03:56:52.075Z,11.93
2022-11-14T04:00:12.820Z,13.30
2022-11-14T04:03:33.384Z,12.35
2022-11-14T04:06:53.985Z,13.90
2022-11-14T04:10:14.667Z,12.80
2022-11-14T04:13:35.744Z,13.75
2022-11-14T04:16:57.188Z,13.38
2022-11-14T04:20:18.381Z,14.05
2022-11-14T04:23:39.255Z,13.15
2022-11-14T04:27:00.115Z,13.75
2022-11-14T04:30:21.394Z,14.57
2022-11-14T04:33:42.336Z,14.73
2022-11-14T04:37:03.167Z,13.73
2022-11-14T04:40:24.205Z,13.93
2022-11-14T04:43:50.616Z,15.07
2022-11-14T04:47:12.331Z,13.65
2022-11-14T04:50:33.781Z,13.00
2022-11-14T04:53:54.485Z,13.95
2022-11-14T04:57:15.430Z,12.90
2022-11-14T05:00:36.447Z,13.38
2022-11-14T05:03:57.213Z,12.63
2022-11-14T05:07:18.278Z,13.48
2022-11-14T05:10:39.646Z,12.95
2022-11-14T05:14:01.176Z,13.57
2022-11-14T05:17:22.505Z,11.95
2022-11-14T05:20:43.401Z,13.43
2022-11-14T05:24:04.024Z,12.65
2022-11-14T05:27:24.572Z,13.82
2022-11-14T05:30:45.342Z,13.35
2022-11-14T05:34:06.044Z,14.48
2022-11-14T05:37:26.691Z,13.80
2022-11-14T05:40:47.656Z,13.60
2022-11-14T05:44:09.395Z,16.08
2022-11-14T05:47:30.424Z,13.70
2022-11-14T05:50:51.126Z,13.43
2022-11-14T05:54:12.041Z,13.80
2022-11-14T05:57:33.202Z,13.60
2022-11-14T06:00:54.681Z,13.00
2022-11-14T06:04:15.788Z,13.40
2022-11-14T06:07:37.178Z,14.10
2022-11-14T06:10:58.394Z,13.75
2022-11-14T06:14:20.030Z,12.27
2022-11-14T06:17:40.929Z,12.75
2022-11-14T06:21:01.873Z,12.43
2022-11-14T06:24:23.235Z,12.52
2022-11-14T06:27:44.483Z,12.65
2022-11-14T06:31:05.469Z,12.63
2022-11-14T06:34:27.128Z,13.93
2022-11-14T06:37:48.872Z,13.48
2022-11-14T06:41:10.324Z,13.05
2022-11-14T06:44:31.389Z,14.50
2022-11-14T06:47:52.192Z,12.55
2022-11-14T06:51:13.066Z,13.85
2022-11-14T06:54:33.710Z,14.38
2022-11-14T06:57:54.913Z,13.35
2022-11-14T07:01:15.962Z,12.90
2022-11-14T07:04:37.235Z,14.95
2022-11-14T07:07:58.409Z,11.55
2022-11-14T07:11:19.488Z,12.40
2022-11-14T07:14:40.898Z,11.95
2022-11-14T07:18:01.750Z,11.70
2022-11-14T07:21:22.312Z,12.75
2022-11-14T07:24:43.251Z,11.65
2022-11-14T07:28:04.039Z,12.05
2022-11-14T07:31:24.720Z,11.73
2022-11-14T07:34:45.504Z,11.20
2022-11-14T07:38:06.451Z,13.23
2022-11-14T07:41:27.031Z,12.20
2022-11-14T07:44:48.031Z,13.63
2022-11-14T07:48:09.455Z,11.23
2022-11-14T07:51:30.760Z,13.80
2022-11-14T07:54:51.978Z,13.43
2022-11-14T07:58:13.105Z,13.15
2022-11-14T08:01:34.019Z,14.60
2022-11-14T08:04:54.854Z,11.48
2022-11-14T08:08:15.722Z,11.77
2022-11-14T08:11:36.442Z,12.93
2022-11-14T08:14:57.814Z,11.57
2022-11-14T08:18:19.135Z,11.95
2022-11-14T08:21:40.058Z,12.10
2022-11-14T08:25:00.553Z,10.75
2022-11-14T08:28:21.414Z,12.63
2022-11-14T08:31:42.306Z,9.88
2022-11-14T08:35:03.242Z,10.30
2022-11-14T08:38:24.505Z,11.68
2022-11-14T08:41:45.421Z,11.80
2022-11-14T08:45:05.972Z,10.95
2022-11-14T08:48:26.573Z,11.13
2022-11-14T08:51:47.693Z,12.10
2022-11-14T08:55:08.957Z,11.18
2022-11-14T08:58:30.167Z,11.73
2022-11-14T09:01:51.408Z,11.57
2022-11-14T09:05:12.125Z,10.38
2022-11-14T09:08:33.491Z,11.57
2022-11-14T09:11:54.472Z,12.30
2022-11-14T09:15:15.316Z,11.45
2022-11-14T09:18:36.031Z,10.63
2022-11-14T09:21:57.105Z,11.75
2022-11-14T09:25:17.902Z,11.98
2022-11-14T09:28:38.802Z,11.23
2022-11-14T09:31:59.839Z,10.43
2022-11-14T09:35:20.722Z,10.50
2022-11-14T09:38:41.608Z,9.20
2022-11-14T09:42:02.778Z,11.13
2022-11-14T09:45:23.970Z,9.85
2022-11-14T09:48:45.188Z,9.25
2022-11-14T09:52:06.147Z,10.13
2022-11-14T09:55:32.212Z,10.10
2022-11-14T09:58:55.823Z,10.10
2022-11-14T10:02:16.829Z,10.80
2022-11-14T10:05:37.845Z,9.75
2022-11-14T10:08:58.454Z,9.40
2022-11-14T10:12:19.280Z,9.75
2022-11-14T10:15:40.387Z,10.48
2022-11-14T10:19:00.941Z,9.77
2022-11-14T10:22:21.683Z,9.93
2022-11-14T10:25:44.428Z,9.48
2022-11-14T10:29:04.817Z,10.65
2022-11-14T10:32:25.367Z,9.02
2022-11-14T10:35:46.288Z,9.40
2022-11-14T10:39:07.081Z,9.43
2022-11-14T10:42:28.051Z,9.40
2022-11-14T10:45:48.965Z,9.80
2022-11-14T10:49:09.985Z,9.93
2022-11-14T10:52:31.402Z,10.68
2022-11-14T10:56:07.420Z,8.95
2022-11-14T10:59:28.324Z,9.45
2022-11-14T11:02:49.116Z,10.02
2022-11-14T11:06:09.957Z,8.60
2022-11-14T11:09:30.813Z,10.52
2022-11-14T11:12:51.855Z,8.82
2022-11-14T11:16:13.421Z,8.75
2022-11-14T11:19:34.658Z,8.52
2022-11-14T11:22:58.538Z,9.80
2022-11-14T11:26:20.712Z,8.40
2022-11-14T11:29:41.894Z,8.68
2022-11-14T11:33:02.846Z,8.60
2022-11-14T11:36:23.686Z,8.65
2022-11-14T11:39:44.292Z,9.20
2022-11-14T11:46:45.840Z,8.30
2022-11-14T11:50:06.886Z,8.98
2022-11-14T11:53:27.940Z,9.18
2022-11-14T11:56:49.040Z,9.07
2022-11-14T12:00:10.056Z,8.65
2022-11-14T12:03:31.977Z,9.55
2022-11-14T12:06:54.113Z,9.45
2022-11-14T12:10:14.880Z,9.50
2022-11-14T12:13:35.936Z,9.25
2022-11-14T12:16:56.895Z,9.13
2022-11-14T12:20:17.948Z,9.18
2022-11-14T12:23:38.615Z,9.25
2022-11-14T12:26:59.359Z,10.05
2022-11-14T12:30:19.970Z,10.00
2022-11-14T12:33:40.819Z,10.20
2022-11-14T12:37:09.233Z,10.32
2022-11-14T12:40:30.465Z,9.52
2022-11-14T12:43:51.670Z,9.95
2022-11-14T12:47:12.682Z,9.77
2022-11-14T12:50:33.589Z,9.25
2022-11-14T12:53:55.187Z,9.50
2022-11-14T12:57:16.010Z,10.20
2022-11-14T13:00:37.320Z,10.10
2022-11-14T13:03:58.356Z,10.38
2022-11-14T13:07:19.494Z,9.73
2022-11-14T13:10:40.211Z,9.95
2022-11-14T13:14:00.770Z,10.52
2022-11-14T13:17:21.825Z,10.20
2022-11-14T13:20:42.954Z,9.95
2022-11-14T13:24:04.048Z,10.80
2022-11-14T13:27:45.295Z,10.45
2022-11-14T13:31:05.351Z,10.75
2022-11-14T13:34:26.103Z,11.20
2022-11-14T13:37:47.248Z,10.50
2022-11-14T13:41:08.211Z,11.52
2022-11-14T13:44:29.316Z,10.82
2022-11-14T13:47:50.450Z,10.50
2022-11-14T13:51:41.195Z,10.40
2022-11-14T13:54:53.199Z,11.13
2022-11-14T13:58:13.720Z,11.35
2022-11-14T14:01:34.912Z,11.48
2022-11-14T14:04:56.485Z,10.57
2022-11-14T14:08:18.558Z,12.38
2022-11-14T14:11:42.998Z,10.38
2022-11-14T14:15:04.770Z,12.70
2022-11-14T14:18:25.640Z,11.02
2022-11-14T14:21:46.567Z,10.75
2022-11-14T14:25:07.827Z,10.93
2022-11-14T14:28:29.376Z,13.65
2022-11-14T14:31:51.049Z,10.15
2022-11-14T14:35:12.010Z,12.13
2022-11-14T14:38:33.685Z,11.15
2022-11-14T14:41:55.217Z,11.32
2022-11-14T14:45:16.319Z,10.88
2022-11-14T14:48:37.182Z,10.95
2022-11-14T14:51:58.940Z,11.30
2022-11-14T14:55:19.654Z,11.00
2022-11-14T14:58:40.280Z,11.95
2022-11-14T15:02:01.156Z,10.50
2022-11-14T15:05:22.154Z,10.75
2022-11-14T15:08:44.297Z,10.18
2022-11-14T15:12:05.504Z,10.98
2022-11-14T15:15:26.131Z,9.88
2022-11-14T15:18:46.711Z,10.73
2022-11-14T15:22:07.981Z,10.60
2022-11-14T15:25:29.220Z,10.73
2022-11-14T15:28:50.307Z,11.75
2022-11-14T15:32:11.307Z,10.63
2022-11-14T15:35:32.128Z,11.30
2022-11-14T15:38:53.169Z,10.88
2022-11-14T15:42:14.060Z,11.30
2022-11-14T15:45:34.942Z,10.40
2022-11-14T15:48:55.393Z,11.32
2022-11-14T15:52:16.398Z,11.60
2022-11-14T15:55:37.346Z,12.05
2022-11-14T15:58:58.218Z,12.30
2022-11-14T16:02:18.986Z,11.43
2022-11-14T16:05:39.903Z,12.00
2022-11-14T16:09:00.788Z,11.23
2022-11-14T16:12:21.696Z,12.88
2022-11-14T16:15:42.599Z,10.55
2022-11-14T16:19:04.003Z,10.90
2022-11-14T16:22:25.578Z,11.75
2022-11-14T16:25:47.069Z,12.52
2022-11-14T16:29:08.039Z,11.68
2022-11-14T16:32:29.135Z,12.13
2022-11-14T16:35:50.500Z,11.60
2022-11-14T16:39:11.838Z,10.27
2022-11-14T16:42:33.032Z,10.55
2022-11-14T16:45:54.030Z,11.07
2022-11-14T16:49:14.763Z,9.68
2022-11-14T16:52:35.175Z,10.73
2022-11-14T16:55:56.237Z,10.23
2022-11-14T16:59:17.400Z,10.23
2022-11-14T17:02:38.567Z,11.00
2022-11-14T17:05:59.441Z,10.63
2022-11-14T17:09:20.520Z,8.52
2022-11-14T17:12:42.051Z,11.77
2022-11-14T17:16:02.780Z,9.93
2022-11-14T17:19:23.196Z,9.98
2022-11-14T17:22:44.234Z,10.63
2022-11-14T17:26:05.487Z,9.68
2022-11-14T17:29:26.752Z,11.02
2022-11-14T17:32:50.349Z,9.93
2022-11-14T17:36:13.549Z,10.25
2022-11-14T17:39:34.712Z,9.88
2022-11-14T17:42:56.401Z,9.68
2022-11-14T17:46:17.346Z,10.27
2022-11-14T17:49:38.248Z,10.60
2022-11-14T17:52:59.422Z,9.95
2022-11-14T17:56:20.467Z,10.75
2022-11-14T17:59:41.213Z,9.30
2022-11-14T18:03:01.867Z,10.80
2022-11-14T18:06:22.882Z,10.18
2022-11-14T18:09:44.022Z,9.90
2022-11-14T18:13:05.742Z,9.88
2022-11-14T18:16:44.422Z,9.52
2022-11-14T18:20:08.406Z,9.90
2022-11-14T18:23:30.323Z,9.20
2022-11-14T18:26:50.905Z,8.70
2022-11-14T18:30:34.705Z,9.05
2022-11-14T18:33:52.620Z,8.52
2022-11-14T18:37:13.762Z,9.10
2022-11-14T18:40:34.732Z,9.38
2022-11-14T18:43:56.117Z,9.05
2022-11-14T18:47:17.131Z,8.82
2022-11-14T18:50:38.152Z,8.90
2022-11-14T18:53:58.912Z,8.80
2022-11-14T18:57:20.001Z,9.15
2022-11-14T19:00:40.691Z,8.25
2022-11-14T19:04:01.506Z,8.57
2022-11-14T19:07:22.149Z,8.40
2022-11-14T19:10:43.170Z,8.75
2022-11-14T19:14:03.803Z,8.27
2022-11-14T19:17:24.534Z,9.50
2022-11-14T19:20:45.928Z,8.93
2022-11-14T19:24:06.994Z,9.75
2022-11-14T19:27:28.156Z,8.30
2022-11-14T19:30:49.308Z,8.40
2022-11-14T19:34:10.953Z,8.38
2022-11-14T19:37:32.092Z,8.82
2022-11-14T19:40:52.935Z,8.52
2022-11-14T19:44:13.928Z,7.55
2022-11-14T19:47:35.442Z,7.80
2022-11-14T19:50:56.664Z,8.40
2022-11-14T19:54:17.566Z,7.28
2022-11-14T19:57:39.141Z,8.27
2022-11-14T20:00:59.910Z,7.22
2022-11-14T20:04:20.517Z,7.40
2022-11-14T20:07:41.497Z,7.40
2022-11-14T20:11:02.202Z,7.72
2022-11-14T20:14:22.770Z,7.68
2022-11-14T20:17:43.665Z,7.20
2022-11-14T20:21:05.261Z,7.18
2022-11-14T20:24:26.651Z,7.75
2022-11-14T20:27:47.865Z,7.80
2022-11-14T20:31:09.137Z,7.32
2022-11-14T20:34:30.400Z,8.15
2022-11-14T20:37:52.468Z,8.65
2022-11-14T20:41:13.332Z,8.70
2022-11-14T20:44:34.513Z,7.82
2022-11-14T20:47:55.440Z,7.90
2022-11-14T20:51:16.766Z,7.57
2022-11-14T20:54:37.667Z,7.85
2022-11-14T20:57:58.204Z,7.03
2022-11-14T21:01:18.863Z,6.95
2022-11-14T21:04:39.711Z,7.15
2022-11-14T21:08:01.488Z,6.00
2022-11-14T21:11:22.911Z,7.28
2022-11-14T21:14:44.016Z,6.72
2022-11-14T21:18:05.419Z,7.25
2022-11-14T21:21:27.432Z,6.32
2022-11-14T21:24:48.549Z,7.38
2022-11-14T21:28:09.560Z,7.70
2022-11-14T21:31:30.566Z,7.10
2022-11-14T21:34:52.649Z,6.55
2022-11-14T21:38:13.505Z,7.43
2022-11-14T21:41:34.339Z,7.00
2022-11-14T21:44:55.277Z,7.50
2022-11-14T21:48:16.520Z,7.40
2022-11-14T21:51:37.507Z,6.75
2022-11-14T21:54:58.495Z,7.22
2022-11-14T21:58:20.127Z,7.18
2022-11-14T22:01:41.317Z,9.25
2022-11-14T22:05:02.021Z,7.68
2022-11-14T22:08:22.510Z,7.80
2022-11-14T22:11:43.368Z,7.70
2022-11-14T22:15:04.534Z,7.80
2022-11-14T22:18:25.552Z,8.30
2022-11-14T22:21:46.537Z,7.97
2022-11-14T22:25:07.958Z,6.82
2022-11-14T22:28:28.712Z,6.43
2022-11-14T22:31:49.611Z,7.60
2022-11-14T22:35:10.496Z,6.40
2022-11-14T22:38:31.507Z,7.13
2022-11-14T22:41:52.179Z,6.97
2022-11-14T22:45:12.813Z,8.20
2022-11-14T22:48:34.078Z,8.95
2022-11-14T22:51:55.393Z,7.75
2022-11-14T22:55:18.162Z,7.18
2022-11-14T22:58:38.782Z,6.70
2022-11-14T23:01:59.396Z,7.90
2022-11-14T23:05:20.143Z,7.80
2022-11-14T23:08:41.547Z,7.75
2022-11-14T23:12:02.819Z,7.82
2022-11-14T23:15:23.638Z,7.32
2022-11-14T23:18:44.774Z,7.65
2022-11-14T23:22:05.750Z,8.15
2022-11-14T23:25:26.311Z,7.90
2022-11-14T23:28:47.236Z,7.85
2022-11-14T23:32:08.543Z,7.90
2022-11-14T23:35:29.326Z,8.25
2022-11-14T23:38:50.090Z,8.88
2022-11-14T23:42:11.359Z,8.57
2022-11-14T23:45:32.543Z,8.65
2022-11-14T23:48:53.507Z,9.73
2022-11-14T23:52:14.251Z,8.63
2022-11-14T23:55:35.184Z,8.90
2022-11-14T23:58:55.924Z,8.38
